METAR Data
IDs: Format: Raw Decoded Include TAF

Data at: 1609 UTC 18 Aug 2019

PATO 181553Z AUTO 29004KT CLR 06/03 A3004 RMK AO2 SLP171 T00610033 TSNO $
PATO 181453Z AUTO 00000KT CLR 02/01 A3006 RMK AO2 SLP178 T00170011 57006 TSNO $
PATO 181353Z AUTO 00000KT CLR 02/01 A3006 RMK AO2 SLP180 T00220011 TSNO $
PATO 181253Z AUTO 00000KT CLR 02/01 A3007 RMK AO2 SLP182 T00220011 TSNO $
PATO 181153Z AUTO 00000KT CLR 03/01 A3008 RMK AO2 SLP184 T00280011 10128 20028 56004 TSNO $
PATO 181053Z AUTO 00000KT CLR 04/02 A3008 RMK AO2 SLP185 T00390017 TSNO $
PATO 180953Z AUTO 00000KT CLR 04/02 A3008 RMK AO2 SLP187 T00440017 TSNO $
PATO 180853Z AUTO 00000KT CLR 06/02 A3009 RMK AO2 SLP188 T00610017 402440056 52003 TSNO $
PATO 180753Z AUTO 00000KT 10SM CLR 07/02 A3008 RMK AO2 SLP187 T00670022 TSNO
PATO 180653Z AUTO 25005KT 10SM CLR 09/03 A3008 RMK AO2 SLP187 T00940028 TSNO
PATO 180553Z AUTO 12004KT 10SM CLR 13/02 A3008 RMK AO2 SLP185 T01280017 10244 20128 50000 TSNO
PATO 180500Z AUTO VRB04KT 10SM CLR 14/02 A3008 RMK AO2 T01440022 TSNO
PATO 180453Z AUTO 2 1/2SM HZ CLR 14/02 A3008 RMK AO2 SLP186 T01440022 TSNO
PATO 180445Z AUTO VRB04KT 1 1/2SM HZ CLR 15/02 A3008 RMK AO2 VIS 1/2V5 T01500022 TSNO
PATO 180353Z AUTO VRB03KT 10SM CLR 17/02 A3008 RMK AO2 SLP185 T01720022 TSNO
PATO 180253Z AUTO 13005KT 10SM CLR 20/02 A3008 RMK AO2 SLP185 T02000022 56005 TSNO
PATO 180153Z AUTO VRB03KT 10SM CLR 24/02 A3008 RMK AO2 SLP185 T02390022 TSNO
PATO 180053Z AUTO 27007KT 10SM CLR 24/02 A3008 RMK AO2 SLP187 T02390022 TSNO
PATO 172353Z AUTO 29007KT 10SM CLR 24/02 A3009 RMK AO2 SLP190 T02390017 10244 20167 58014 TSNO
PATO 172253Z AUTO VRB04KT 10SM CLR 24/02 A3011 RMK AO2 SLP195 T02390022 TSNO
PATO 172153Z AUTO VRB03KT 10SM CLR 23/02 A3012 RMK AO2 SLP199 T02280022 TSNO
PATO 172053Z AUTO 27009G18KT 250V310 10SM CLR 21/04 A3013 RMK AO2 SLP204 T02110044 51009 TSNO
PATO 171953Z AUTO 28008G22KT 250V310 10SM CLR 19/04 A3013 RMK AO2 SLP202 T01890044 TSNO
PATO 171853Z AUTO 27009G19KT 250V310 10SM CLR 18/05 A3012 RMK AO2 SLP198 T01780050 TSNO
PATO 171753Z AUTO 26011G24KT 10SM CLR 17/06 A3011 RMK AO2 SLP194 T01670056 10183 20144 51018 TSNO
PATO 171653Z AUTO 26010G22KT 230V300 10SM CLR 16/06 A3009 RMK AO2 PK WND 21026/1641 SLP190 T01560061 TSNO
PATO 171553Z AUTO 26008G23KT 10SM CLR 16/06 A3007 RMK AO2 SLP182 T01560056 TSNO
PATO 171453Z AUTO 28008G20KT 10SM CLR 16/07 A3005 RMK AO2 SLP177 T01560067 53016 TSNO
PATO 171353Z AUTO 27006KT 10SM CLR 15/06 A3004 RMK AO2 SLP172 T01500056 TSNO
PATO 171253Z AUTO VRB06G17KT 8SM CLR 17/02 A3002 RMK AO2 SLP165 T01720022 TSNO
PATO 171153Z AUTO 28012G23KT 10SM CLR 18/04 A3001 RMK AO2 SLP161 T01830044 10211 20183 53014 TSNO
PATO 171053Z AUTO VRB05KT 9SM SCT100 19/04 A2998 RMK AO2 SLP153 T01890044 TSNO
PATO 170953Z AUTO 28009G22KT 9SM CLR 20/06 A2997 RMK AO2 SLP147 T02000061 TSNO
PATO 170853Z AUTO 28007G15KT 10SM CLR 19/08 A2997 RMK AO2 SLP147 T01940083 402780078 56016 TSNO
PATO 170753Z AUTO 29006KT 10SM CLR 19/10 A2997 RMK AO2 SLP149 T01940100 TSNO
PATO 170653Z AUTO 28008G20KT 250V320 10SM CLR 21/11 A3000 RMK AO2 SLP157 T02110106 TSNO
PATO 170553Z AUTO 10SM CLR 21/11 A3001 RMK AO2 SLP162 T02110111 10272 20206 58003 TSNO
PATO 170453Z AUTO VRB05G19KT 10SM CLR 23/11 A3003 RMK AO2 SLP168 T02280111 TSNO